sensor_id;sensor_type;location;lat;lon;timestamp;P1;durP1;ratioP1;P2;durP2;ratioP2
39540;SDS011;25219;52.244;21.006;2022-11-20T00:01:52;70.68;;;28.65;;
39540;SDS011;25219;52.244;21.006;2022-11-20T00:04:17;67.78;;;29.35;;
39540;SDS011;25219;52.244;21.006;2022-11-20T00:06:43;65.00;;;28.23;;
39540;SDS011;25219;52.244;21.006;2022-11-20T00:09:09;70.18;;;29.80;;
39540;SDS011;25219;52.244;21.006;2022-11-20T00:11:35;61.85;;;28.08;;
39540;SDS011;25219;52.244;21.006;2022-11-20T00:14:01;68.28;;;29.35;;
39540;SDS011;25219;52.244;21.006;2022-11-20T00:16:27;68.28;;;29.00;;
39540;SDS011;25219;52.244;21.006;2022-11-20T00:18:53;65.10;;;27.95;;
39540;SDS011;25219;52.244;21.006;2022-11-20T00:21:19;68.78;;;27.88;;
39540;SDS011;25219;52.244;21.006;2022-11-20T00:23:45;61.42;;;27.52;;
39540;SDS011;25219;52.244;21.006;2022-11-20T00:26:11;62.05;;;28.48;;
39540;SDS011;25219;52.244;21.006;2022-11-20T00:28:40;65.15;;;27.55;;
39540;SDS011;25219;52.244;21.006;2022-11-20T00:31:06;61.25;;;28.88;;
39540;SDS011;25219;52.244;21.006;2022-11-20T00:33:33;64.22;;;27.40;;
39540;SDS011;25219;52.244;21.006;2022-11-20T00:36:05;68.40;;;27.50;;
39540;SDS011;25219;52.244;21.006;2022-11-20T00:38:31;60.13;;;26.00;;
39540;SDS011;25219;52.244;21.006;2022-11-20T00:40:57;56.20;;;27.38;;
39540;SDS011;25219;52.244;21.006;2022-11-20T00:43:22;61.95;;;26.77;;
39540;SDS011;25219;52.244;21.006;2022-11-20T00:45:49;61.28;;;25.92;;
39540;SDS011;25219;52.244;21.006;2022-11-20T00:48:14;52.65;;;25.63;;
39540;SDS011;25219;52.244;21.006;2022-11-20T00:50:40;59.65;;;26.02;;
39540;SDS011;25219;52.244;21.006;2022-11-20T00:53:06;58.00;;;23.50;;
39540;SDS011;25219;52.244;21.006;2022-11-20T00:55:31;54.40;;;24.17;;
39540;SDS011;25219;52.244;21.006;2022-11-20T00:57:58;60.95;;;25.98;;
39540;SDS011;25219;52.244;21.006;2022-11-20T01:00:23;59.47;;;26.58;;
39540;SDS011;25219;52.244;21.006;2022-11-20T01:02:49;51.47;;;25.63;;
39540;SDS011;25219;52.244;21.006;2022-11-20T01:05:15;52.42;;;23.17;;
39540;SDS011;25219;52.244;21.006;2022-11-20T01:07:40;49.15;;;21.38;;
39540;SDS011;25219;52.244;21.006;2022-11-20T01:10:05;56.40;;;21.95;;
39540;SDS011;25219;52.244;21.006;2022-11-20T01:12:31;55.05;;;23.05;;
39540;SDS011;25219;52.244;21.006;2022-11-20T01:14:56;46.45;;;20.73;;
39540;SDS011;25219;52.244;21.006;2022-11-20T01:17:21;55.08;;;21.88;;
39540;SDS011;25219;52.244;21.006;2022-11-20T01:19:51;58.13;;;21.45;;
39540;SDS011;25219;52.244;21.006;2022-11-20T01:22:16;56.60;;;22.60;;
39540;SDS011;25219;52.244;21.006;2022-11-20T01:24:42;50.47;;;20.40;;
39540;SDS011;25219;52.244;21.006;2022-11-20T01:27:08;45.45;;;21.50;;
39540;SDS011;25219;52.244;21.006;2022-11-20T01:29:33;52.50;;;22.87;;
39540;SDS011;25219;52.244;21.006;2022-11-20T01:31:59;56.13;;;24.30;;
39540;SDS011;25219;52.244;21.006;2022-11-20T01:34:24;57.63;;;21.58;;
39540;SDS011;25219;52.244;21.006;2022-11-20T01:36:50;58.80;;;24.02;;
39540;SDS011;25219;52.244;21.006;2022-11-20T01:39:19;57.67;;;22.23;;
39540;SDS011;25219;52.244;21.006;2022-11-20T01:41:45;61.17;;;26.88;;
39540;SDS011;25219;52.244;21.006;2022-11-20T01:47:15;57.97;;;26.17;;
39540;SDS011;25219;52.244;21.006;2022-11-20T01:49:46;58.88;;;26.10;;
39540;SDS011;25219;52.244;21.006;2022-11-20T01:52:13;57.13;;;24.75;;
39540;SDS011;25219;52.244;21.006;2022-11-20T01:54:42;64.97;;;26.42;;
39540;SDS011;25219;52.244;21.006;2022-11-20T01:57:09;64.20;;;26.48;;
39540;SDS011;25219;52.244;21.006;2022-11-20T01:59:35;57.63;;;26.75;;
39540;SDS011;25219;52.244;21.006;2022-11-20T02:02:03;54.13;;;24.52;;
39540;SDS011;25219;52.244;21.006;2022-11-20T02:04:28;58.90;;;25.73;;
39540;SDS011;25219;52.244;21.006;2022-11-20T02:06:55;58.05;;;26.65;;
39540;SDS011;25219;52.244;21.006;2022-11-20T02:09:24;57.88;;;24.55;;
39540;SDS011;25219;52.244;21.006;2022-11-20T02:11:49;59.50;;;25.63;;
39540;SDS011;25219;52.244;21.006;2022-11-20T02:14:14;53.83;;;25.50;;
39540;SDS011;25219;52.244;21.006;2022-11-20T02:16:40;55.78;;;24.30;;
39540;SDS011;25219;52.244;21.006;2022-11-20T02:19:09;59.50;;;25.48;;
39540;SDS011;25219;52.244;21.006;2022-11-20T02:24:15;58.35;;;26.10;;
39540;SDS011;25219;52.244;21.006;2022-11-20T02:26:52;57.10;;;24.80;;
39540;SDS011;25219;52.244;21.006;2022-11-20T02:29:26;56.08;;;24.05;;
39540;SDS011;25219;52.244;21.006;2022-11-20T02:31:55;52.00;;;22.35;;
39540;SDS011;25219;52.244;21.006;2022-11-20T02:34:21;52.60;;;21.77;;
39540;SDS011;25219;52.244;21.006;2022-11-20T02:36:46;48.78;;;22.70;;
39540;SDS011;25219;52.244;21.006;2022-11-20T02:39:14;54.08;;;22.48;;
39540;SDS011;25219;52.244;21.006;2022-11-20T02:41:42;49.35;;;20.48;;
39540;SDS011;25219;52.244;21.006;2022-11-20T02:44:08;52.92;;;22.63;;
39540;SDS011;25219;52.244;21.006;2022-11-20T02:46:33;46.40;;;21.42;;
39540;SDS011;25219;52.244;21.006;2022-11-20T02:49:00;51.90;;;22.02;;
39540;SDS011;25219;52.244;21.006;2022-11-20T02:51:25;48.65;;;21.42;;
39540;SDS011;25219;52.244;21.006;2022-11-20T02:53:50;46.25;;;21.25;;
39540;SDS011;25219;52.244;21.006;2022-11-20T02:56:16;48.33;;;21.50;;
39540;SDS011;25219;52.244;21.006;2022-11-20T02:58:41;50.72;;;23.48;;
39540;SDS011;25219;52.244;21.006;2022-11-20T03:03:50;53.35;;;22.88;;
39540;SDS011;25219;52.244;21.006;2022-11-20T03:06:17;52.42;;;23.98;;
39540;SDS011;25219;52.244;21.006;2022-11-20T03:08:45;53.45;;;23.98;;
39540;SDS011;25219;52.244;21.006;2022-11-20T03:11:12;64.15;;;27.80;;
39540;SDS011;25219;52.244;21.006;2022-11-20T03:13:50;57.63;;;26.33;;
39540;SDS011;25219;52.244;21.006;2022-11-20T03:16:22;66.17;;;26.53;;
39540;SDS011;25219;52.244;21.006;2022-11-20T03:19:19;56.85;;;26.38;;
39540;SDS011;25219;52.244;21.006;2022-11-20T03:22:10;64.03;;;26.52;;
39540;SDS011;25219;52.244;21.006;2022-11-20T03:24:38;63.47;;;26.25;;
39540;SDS011;25219;52.244;21.006;2022-11-20T03:27:08;62.00;;;25.60;;
39540;SDS011;25219;52.244;21.006;2022-11-20T03:29:36;63.67;;;28.23;;
39540;SDS011;25219;52.244;21.006;2022-11-20T03:32:09;68.68;;;29.52;;
39540;SDS011;25219;52.244;21.006;2022-11-20T03:34:34;64.63;;;26.00;;
39540;SDS011;25219;52.244;21.006;2022-11-20T03:36:59;62.33;;;26.52;;
39540;SDS011;25219;52.244;21.006;2022-11-20T03:39:24;65.50;;;27.40;;
39540;SDS011;25219;52.244;21.006;2022-11-20T03:41:51;64.28;;;28.58;;
39540;SDS011;25219;52.244;21.006;2022-11-20T03:44:17;62.17;;;26.65;;
39540;SDS011;25219;52.244;21.006;2022-11-20T03:46:45;67.38;;;28.52;;
39540;SDS011;25219;52.244;21.006;2022-11-20T03:49:11;66.88;;;28.50;;
39540;SDS011;25219;52.244;21.006;2022-11-20T03:51:36;64.88;;;28.17;;
39540;SDS011;25219;52.244;21.006;2022-11-20T03:54:02;58.95;;;26.88;;
39540;SDS011;25219;52.244;21.006;2022-11-20T03:56:29;75.95;;;29.90;;
39540;SDS011;25219;52.244;21.006;2022-11-20T03:58:55;69.40;;;28.20;;
39540;SDS011;25219;52.244;21.006;2022-11-20T04:01:21;63.83;;;27.10;;
39540;SDS011;25219;52.244;21.006;2022-11-20T04:03:50;67.70;;;29.42;;
39540;SDS011;25219;52.244;21.006;2022-11-20T04:06:17;71.47;;;29.10;;
39540;SDS011;25219;52.244;21.006;2022-11-20T04:08:43;65.85;;;28.63;;
39540;SDS011;25219;52.244;21.006;2022-11-20T04:11:19;70.60;;;28.90;;
39540;SDS011;25219;52.244;21.006;2022-11-20T04:13:48;64.25;;;26.85;;
39540;SDS011;25219;52.244;21.006;2022-11-20T04:16:14;63.03;;;28.67;;
39540;SDS011;25219;52.244;21.006;2022-11-20T04:18:39;68.38;;;28.48;;
39540;SDS011;25219;52.244;21.006;2022-11-20T04:21:04;64.80;;;28.30;;
39540;SDS011;25219;52.244;21.006;2022-11-20T04:23:31;65.72;;;28.35;;
39540;SDS011;25219;52.244;21.006;2022-11-20T04:26:06;67.07;;;27.63;;
39540;SDS011;25219;52.244;21.006;2022-11-20T04:28:31;61.88;;;27.15;;
39540;SDS011;25219;52.244;21.006;2022-11-20T04:33:28;64.65;;;26.40;;
39540;SDS011;25219;52.244;21.006;2022-11-20T04:35:53;62.72;;;27.25;;
39540;SDS011;25219;52.244;21.006;2022-11-20T04:38:18;63.22;;;28.27;;
39540;SDS011;25219;52.244;21.006;2022-11-20T04:40:44;64.78;;;26.13;;
39540;SDS011;25219;52.244;21.006;2022-11-20T04:43:10;70.00;;;28.45;;
39540;SDS011;25219;52.244;21.006;2022-11-20T04:45:36;64.60;;;27.70;;
39540;SDS011;25219;52.244;21.006;2022-11-20T04:48:01;59.17;;;27.38;;
39540;SDS011;25219;52.244;21.006;2022-11-20T04:50:26;58.03;;;25.77;;
39540;SDS011;25219;52.244;21.006;2022-11-20T04:52:51;58.85;;;25.15;;
39540;SDS011;25219;52.244;21.006;2022-11-20T04:55:17;56.67;;;27.05;;
39540;SDS011;25219;52.244;21.006;2022-11-20T04:57:45;61.45;;;26.85;;
39540;SDS011;25219;52.244;21.006;2022-11-20T05:00:10;57.58;;;25.58;;
39540;SDS011;25219;52.244;21.006;2022-11-20T05:02:35;54.88;;;23.17;;
39540;SDS011;25219;52.244;21.006;2022-11-20T05:05:01;50.50;;;22.95;;
39540;SDS011;25219;52.244;21.006;2022-11-20T05:07:26;55.50;;;23.58;;
39540;SDS011;25219;52.244;21.006;2022-11-20T05:09:51;52.28;;;23.30;;
39540;SDS011;25219;52.244;21.006;2022-11-20T05:12:16;54.42;;;25.63;;
39540;SDS011;25219;52.244;21.006;2022-11-20T05:14:44;55.38;;;23.27;;
39540;SDS011;25219;52.244;21.006;2022-11-20T05:17:10;60.63;;;26.27;;
39540;SDS011;25219;52.244;21.006;2022-11-20T05:19:37;56.40;;;25.63;;
39540;SDS011;25219;52.244;21.006;2022-11-20T05:22:02;57.08;;;24.38;;
39540;SDS011;25219;52.244;21.006;2022-11-20T05:24:30;57.03;;;24.38;;
39540;SDS011;25219;52.244;21.006;2022-11-20T05:26:55;50.92;;;23.65;;
39540;SDS011;25219;52.244;21.006;2022-11-20T05:29:20;51.10;;;23.10;;
39540;SDS011;25219;52.244;21.006;2022-11-20T05:31:45;55.15;;;24.00;;
39540;SDS011;25219;52.244;21.006;2022-11-20T05:34:10;50.53;;;23.58;;
39540;SDS011;25219;52.244;21.006;2022-11-20T05:36:36;56.65;;;23.15;;
39540;SDS011;25219;52.244;21.006;2022-11-20T05:39:01;54.40;;;25.02;;
39540;SDS011;25219;52.244;21.006;2022-11-20T05:41:26;59.22;;;23.92;;
39540;SDS011;25219;52.244;21.006;2022-11-20T05:43:51;61.85;;;25.52;;
39540;SDS011;25219;52.244;21.006;2022-11-20T05:46:20;54.72;;;23.42;;
39540;SDS011;25219;52.244;21.006;2022-11-20T05:48:46;47.05;;;22.63;;
39540;SDS011;25219;52.244;21.006;2022-11-20T05:51:12;53.53;;;23.55;;
39540;SDS011;25219;52.244;21.006;2022-11-20T05:53:38;51.85;;;22.17;;
39540;SDS011;25219;52.244;21.006;2022-11-20T05:56:07;46.85;;;21.77;;
39540;SDS011;25219;52.244;21.006;2022-11-20T05:58:37;50.45;;;23.20;;
39540;SDS011;25219;52.244;21.006;2022-11-20T06:01:04;49.15;;;22.13;;
39540;SDS011;25219;52.244;21.006;2022-11-20T06:03:32;46.35;;;22.00;;
39540;SDS011;25219;52.244;21.006;2022-11-20T06:06:02;52.42;;;22.27;;
39540;SDS011;25219;52.244;21.006;2022-11-20T06:08:43;49.33;;;21.85;;
39540;SDS011;25219;52.244;21.006;2022-11-20T06:11:18;57.33;;;23.67;;
39540;SDS011;25219;52.244;21.006;2022-11-20T06:13:44;48.15;;;21.83;;
39540;SDS011;25219;52.244;21.006;2022-11-20T06:16:11;46.08;;;21.40;;
39540;SDS011;25219;52.244;21.006;2022-11-20T06:18:38;49.15;;;23.20;;
39540;SDS011;25219;52.244;21.006;2022-11-20T06:21:14;51.97;;;22.52;;
39540;SDS011;25219;52.244;21.006;2022-11-20T06:23:42;47.15;;;21.23;;
39540;SDS011;25219;52.244;21.006;2022-11-20T06:26:11;49.95;;;23.05;;
39540;SDS011;25219;52.244;21.006;2022-11-20T06:28:39;52.60;;;23.33;;
39540;SDS011;25219;52.244;21.006;2022-11-20T06:31:06;54.35;;;22.67;;
39540;SDS011;25219;52.244;21.006;2022-11-20T06:33:33;56.65;;;24.83;;
39540;SDS011;25219;52.244;21.006;2022-11-20T06:35:59;56.15;;;23.92;;
39540;SDS011;25219;52.244;21.006;2022-11-20T06:38:25;55.03;;;22.85;;
39540;SDS011;25219;52.244;21.006;2022-11-20T06:40:50;53.08;;;23.23;;
39540;SDS011;25219;52.244;21.006;2022-11-20T06:43:16;57.28;;;24.70;;
39540;SDS011;25219;52.244;21.006;2022-11-20T06:45:41;52.75;;;23.17;;
39540;SDS011;25219;52.244;21.006;2022-11-20T06:48:06;55.28;;;24.52;;
39540;SDS011;25219;52.244;21.006;2022-11-20T06:50:31;55.95;;;22.58;;
39540;SDS011;25219;52.244;21.006;2022-11-20T06:52:59;55.60;;;24.80;;
39540;SDS011;25219;52.244;21.006;2022-11-20T06:55:25;54.55;;;24.55;;
39540;SDS011;25219;52.244;21.006;2022-11-20T06:57:50;57.38;;;24.83;;
39540;SDS011;25219;52.244;21.006;2022-11-20T07:00:18;58.15;;;25.75;;
39540;SDS011;25219;52.244;21.006;2022-11-20T07:02:43;57.28;;;25.37;;
39540;SDS011;25219;52.244;21.006;2022-11-20T07:05:08;59.17;;;25.58;;
39540;SDS011;25219;52.244;21.006;2022-11-20T07:07:37;57.53;;;26.02;;
39540;SDS011;25219;52.244;21.006;2022-11-20T07:10:03;55.50;;;25.35;;
39540;SDS011;25219;52.244;21.006;2022-11-20T07:12:28;52.35;;;24.95;;
39540;SDS011;25219;52.244;21.006;2022-11-20T07:14:53;69.07;;;25.95;;
39540;SDS011;25219;52.244;21.006;2022-11-20T07:17:22;50.33;;;24.05;;
39540;SDS011;25219;52.244;21.006;2022-11-20T07:19:47;56.97;;;24.33;;
39540;SDS011;25219;52.244;21.006;2022-11-20T07:22:15;59.13;;;25.38;;
39540;SDS011;25219;52.244;21.006;2022-11-20T07:24:43;56.35;;;26.05;;
39540;SDS011;25219;52.244;21.006;2022-11-20T07:27:09;67.20;;;25.40;;
39540;SDS011;25219;52.244;21.006;2022-11-20T07:29:34;60.38;;;24.92;;
39540;SDS011;25219;52.244;21.006;2022-11-20T07:32:00;59.33;;;24.65;;
39540;SDS011;25219;52.244;21.006;2022-11-20T07:34:26;53.92;;;25.33;;
39540;SDS011;25219;52.244;21.006;2022-11-20T07:36:52;51.03;;;23.77;;
39540;SDS011;25219;52.244;21.006;2022-11-20T07:39:17;51.23;;;24.20;;
39540;SDS011;25219;52.244;21.006;2022-11-20T07:41:42;55.42;;;24.58;;
39540;SDS011;25219;52.244;21.006;2022-11-20T07:44:08;52.28;;;24.55;;
39540;SDS011;25219;52.244;21.006;2022-11-20T07:46:33;61.53;;;28.30;;
39540;SDS011;25219;52.244;21.006;2022-11-20T07:48:58;53.33;;;26.13;;
39540;SDS011;25219;52.244;21.006;2022-11-20T07:51:23;54.08;;;24.15;;
39540;SDS011;25219;52.244;21.006;2022-11-20T07:53:52;63.33;;;25.65;;
39540;SDS011;25219;52.244;21.006;2022-11-20T07:56:17;57.25;;;25.58;;
39540;SDS011;25219;52.244;21.006;2022-11-20T07:58:42;60.65;;;25.92;;
39540;SDS011;25219;52.244;21.006;2022-11-20T08:01:07;56.33;;;23.60;;
39540;SDS011;25219;52.244;21.006;2022-11-20T08:03:33;55.13;;;24.83;;
39540;SDS011;25219;52.244;21.006;2022-11-20T08:05:59;60.35;;;26.23;;
39540;SDS011;25219;52.244;21.006;2022-11-20T08:08:25;53.85;;;25.25;;
39540;SDS011;25219;52.244;21.006;2022-11-20T08:10:50;53.55;;;23.70;;
39540;SDS011;25219;52.244;21.006;2022-11-20T08:13:16;53.27;;;25.53;;
39540;SDS011;25219;52.244;21.006;2022-11-20T08:15:59;55.25;;;25.73;;
39540;SDS011;25219;52.244;21.006;2022-11-20T08:18:24;56.70;;;25.83;;
39540;SDS011;25219;52.244;21.006;2022-11-20T08:20:50;62.40;;;25.13;;
39540;SDS011;25219;52.244;21.006;2022-11-20T08:23:15;60.40;;;25.07;;
39540;SDS011;25219;52.244;21.006;2022-11-20T08:25:40;60.45;;;25.48;;
39540;SDS011;25219;52.244;21.006;2022-11-20T08:28:06;54.85;;;25.83;;
39540;SDS011;25219;52.244;21.006;2022-11-20T08:30:32;52.50;;;24.52;;
39540;SDS011;25219;52.244;21.006;2022-11-20T08:33:01;54.40;;;25.15;;
39540;SDS011;25219;52.244;21.006;2022-11-20T08:35:26;52.63;;;23.77;;
39540;SDS011;25219;52.244;21.006;2022-11-20T08:37:52;51.20;;;23.88;;
39540;SDS011;25219;52.244;21.006;2022-11-20T08:40:17;63.17;;;24.73;;
39540;SDS011;25219;52.244;21.006;2022-11-20T08:42:49;55.78;;;24.55;;
39540;SDS011;25219;52.244;21.006;2022-11-20T08:45:15;57.80;;;24.48;;
39540;SDS011;25219;52.244;21.006;2022-11-20T08:47:40;57.55;;;25.35;;
39540;SDS011;25219;52.244;21.006;2022-11-20T08:50:07;62.55;;;24.50;;
39540;SDS011;25219;52.244;21.006;2022-11-20T08:52:32;52.55;;;23.77;;
39540;SDS011;25219;52.244;21.006;2022-11-20T08:54:58;50.90;;;22.90;;
39540;SDS011;25219;52.244;21.006;2022-11-20T08:57:26;57.33;;;25.30;;
39540;SDS011;25219;52.244;21.006;2022-11-20T08:59:51;57.85;;;24.60;;
39540;SDS011;25219;52.244;21.006;2022-11-20T09:02:17;55.50;;;25.27;;
39540;SDS011;25219;52.244;21.006;2022-11-20T09:04:43;62.05;;;25.42;;
39540;SDS011;25219;52.244;21.006;2022-11-20T09:07:10;55.08;;;25.08;;
39540;SDS011;25219;52.244;21.006;2022-11-20T09:09:35;61.90;;;26.30;;
39540;SDS011;25219;52.244;21.006;2022-11-20T09:12:00;57.67;;;24.95;;
39540;SDS011;25219;52.244;21.006;2022-11-20T09:14:26;55.97;;;25.77;;
39540;SDS011;25219;52.244;21.006;2022-11-20T09:16:54;59.45;;;25.98;;
39540;SDS011;25219;52.244;21.006;2022-11-20T09:19:19;62.00;;;27.20;;
39540;SDS011;25219;52.244;21.006;2022-11-20T09:21:47;59.90;;;25.20;;
39540;SDS011;25219;52.244;21.006;2022-11-20T09:24:12;60.03;;;27.00;;
39540;SDS011;25219;52.244;21.006;2022-11-20T09:26:37;53.97;;;24.98;;
39540;SDS011;25219;52.244;21.006;2022-11-20T09:29:03;60.22;;;26.13;;
39540;SDS011;25219;52.244;21.006;2022-11-20T09:31:28;61.13;;;26.98;;
39540;SDS011;25219;52.244;21.006;2022-11-20T09:33:53;60.97;;;26.05;;
39540;SDS011;25219;52.244;21.006;2022-11-20T09:36:18;58.78;;;25.45;;
39540;SDS011;25219;52.244;21.006;2022-11-20T09:38:44;63.40;;;27.10;;
39540;SDS011;25219;52.244;21.006;2022-11-20T09:41:17;57.55;;;26.13;;
39540;SDS011;25219;52.244;21.006;2022-11-20T09:43:49;53.00;;;25.50;;
39540;SDS011;25219;52.244;21.006;2022-11-20T09:46:28;64.38;;;27.17;;
39540;SDS011;25219;52.244;21.006;2022-11-20T09:54:25;63.40;;;26.77;;
39540;SDS011;25219;52.244;21.006;2022-11-20T09:57:01;61.30;;;26.10;;
39540;SDS011;25219;52.244;21.006;2022-11-20T10:01:59;58.30;;;25.20;;
39540;SDS011;25219;52.244;21.006;2022-11-20T10:04:25;58.72;;;25.38;;
39540;SDS011;25219;52.244;21.006;2022-11-20T10:07:07;57.05;;;25.52;;
39540;SDS011;25219;52.244;21.006;2022-11-20T10:09:41;62.08;;;25.98;;
39540;SDS011;25219;52.244;21.006;2022-11-20T10:12:14;54.60;;;24.42;;
39540;SDS011;25219;52.244;21.006;2022-11-20T10:19:47;56.63;;;26.00;;
39540;SDS011;25219;52.244;21.006;2022-11-20T10:25:08;56.53;;;26.65;;
39540;SDS011;25219;52.244;21.006;2022-11-20T10:27:44;56.97;;;24.88;;
39540;SDS011;25219;52.244;21.006;2022-11-20T10:30:15;55.95;;;25.45;;
39540;SDS011;25219;52.244;21.006;2022-11-20T10:32:46;58.03;;;26.77;;
39540;SDS011;25219;52.244;21.006;2022-11-20T10:37:57;62.08;;;26.50;;
39540;SDS011;25219;52.244;21.006;2022-11-20T10:40:40;54.40;;;25.73;;
39540;SDS011;25219;52.244;21.006;2022-11-20T10:43:24;57.78;;;25.05;;
39540;SDS011;25219;52.244;21.006;2022-11-20T10:45:56;52.65;;;24.70;;
39540;SDS011;25219;52.244;21.006;2022-11-20T10:48:23;53.50;;;24.50;;
39540;SDS011;25219;52.244;21.006;2022-11-20T10:51:12;50.80;;;24.67;;
39540;SDS011;25219;52.244;21.006;2022-11-20T10:56:05;51.00;;;24.27;;
39540;SDS011;25219;52.244;21.006;2022-11-20T10:59:18;46.90;;;22.20;;
39540;SDS011;25219;52.244;21.006;2022-11-20T11:01:17;50.83;;;23.27;;
39540;SDS011;25219;52.244;21.006;2022-11-20T11:03:42;46.20;;;23.10;;
39540;SDS011;25219;52.244;21.006;2022-11-20T11:08:41;47.15;;;21.83;;
39540;SDS011;25219;52.244;21.006;2022-11-20T11:11:21;49.75;;;22.67;;
39540;SDS011;25219;52.244;21.006;2022-11-20T11:13:47;47.33;;;22.35;;
39540;SDS011;25219;52.244;21.006;2022-11-20T11:16:23;52.42;;;23.23;;
39540;SDS011;25219;52.244;21.006;2022-11-20T11:18:48;51.05;;;23.60;;
39540;SDS011;25219;52.244;21.006;2022-11-20T11:21:13;48.25;;;24.02;;
39540;SDS011;25219;52.244;21.006;2022-11-20T11:23:45;46.42;;;22.67;;
39540;SDS011;25219;52.244;21.006;2022-11-20T11:26:20;46.43;;;23.53;;
39540;SDS011;25219;52.244;21.006;2022-11-20T11:28:59;47.53;;;22.40;;
39540;SDS011;25219;52.244;21.006;2022-11-20T11:31:29;48.40;;;23.35;;
39540;SDS011;25219;52.244;21.006;2022-11-20T11:34:06;44.13;;;20.92;;
39540;SDS011;25219;52.244;21.006;2022-11-20T11:36:32;45.60;;;22.15;;
39540;SDS011;25219;52.244;21.006;2022-11-20T11:39:00;45.25;;;21.27;;
39540;SDS011;25219;52.244;21.006;2022-11-20T11:41:28;42.85;;;22.77;;
39540;SDS011;25219;52.244;21.006;2022-11-20T11:43:54;52.05;;;23.35;;
39540;SDS011;25219;52.244;21.006;2022-11-20T11:46:38;42.78;;;20.48;;
39540;SDS011;25219;52.244;21.006;2022-11-20T11:52:05;46.60;;;21.73;;
39540;SDS011;25219;52.244;21.006;2022-11-20T11:54:28;47.72;;;21.20;;
39540;SDS011;25219;52.244;21.006;2022-11-20T11:56:55;46.25;;;21.15;;
39540;SDS011;25219;52.244;21.006;2022-11-20T12:04:54;45.38;;;21.02;;
39540;SDS011;25219;52.244;21.006;2022-11-20T12:12:55;40.85;;;19.38;;
39540;SDS011;25219;52.244;21.006;2022-11-20T12:15:25;45.78;;;20.33;;
39540;SDS011;25219;52.244;21.006;2022-11-20T12:17:51;54.65;;;21.40;;
39540;SDS011;25219;52.244;21.006;2022-11-20T12:20:17;37.95;;;18.85;;
39540;SDS011;25219;52.244;21.006;2022-11-20T12:22:50;41.97;;;21.02;;
39540;SDS011;25219;52.244;21.006;2022-11-20T12:25:25;46.65;;;21.88;;
39540;SDS011;25219;52.244;21.006;2022-11-20T12:30:21;46.80;;;21.80;;
39540;SDS011;25219;52.244;21.006;2022-11-20T12:43:11;51.47;;;23.35;;
39540;SDS011;25219;52.244;21.006;2022-11-20T12:48:51;58.83;;;23.65;;
39540;SDS011;25219;52.244;21.006;2022-11-20T12:52:20;54.65;;;24.13;;
39540;SDS011;25219;52.244;21.006;2022-11-20T12:54:25;50.88;;;23.17;;
39540;SDS011;25219;52.244;21.006;2022-11-20T12:59:56;47.13;;;24.23;;
39540;SDS011;25219;52.244;21.006;2022-11-20T13:02:26;55.92;;;24.83;;
39540;SDS011;25219;52.244;21.006;2022-11-20T13:05:01;51.63;;;23.85;;
39540;SDS011;25219;52.244;21.006;2022-11-20T13:07:29;53.50;;;23.98;;
39540;SDS011;25219;52.244;21.006;2022-11-20T13:09:55;51.75;;;22.80;;
39540;SDS011;25219;52.244;21.006;2022-11-20T13:12:30;65.32;;;25.42;;
39540;SDS011;25219;52.244;21.006;2022-11-20T13:15:02;54.95;;;23.70;;
39540;SDS011;25219;52.244;21.006;2022-11-20T13:17:35;54.90;;;25.48;;
39540;SDS011;25219;52.244;21.006;2022-11-20T13:20:02;53.97;;;24.55;;
39540;SDS011;25219;52.244;21.006;2022-11-20T13:22:41;58.55;;;25.17;;
39540;SDS011;25219;52.244;21.006;2022-11-20T13:25:10;57.50;;;25.02;;
39540;SDS011;25219;52.244;21.006;2022-11-20T13:27:35;50.13;;;23.77;;
39540;SDS011;25219;52.244;21.006;2022-11-20T13:30:18;53.40;;;24.17;;
39540;SDS011;25219;52.244;21.006;2022-11-20T13:33:04;58.65;;;25.30;;
39540;SDS011;25219;52.244;21.006;2022-11-20T13:35:32;56.05;;;23.77;;
39540;SDS011;25219;52.244;21.006;2022-11-20T13:38:09;54.95;;;23.77;;
39540;SDS011;25219;52.244;21.006;2022-11-20T13:40:56;54.33;;;24.20;;
39540;SDS011;25219;52.244;21.006;2022-11-20T13:43:40;52.90;;;23.92;;
39540;SDS011;25219;52.244;21.006;2022-11-20T13:46:06;57.75;;;25.10;;
39540;SDS011;25219;52.244;21.006;2022-11-20T13:48:33;53.08;;;25.27;;
39540;SDS011;25219;52.244;21.006;2022-11-20T13:53:52;58.20;;;24.00;;
39540;SDS011;25219;52.244;21.006;2022-11-20T14:01:26;46.53;;;23.25;;
39540;SDS011;25219;52.244;21.006;2022-11-20T14:08:47;55.23;;;25.20;;
39540;SDS011;25219;52.244;21.006;2022-11-20T14:11:18;57.17;;;24.97;;
39540;SDS011;25219;52.244;21.006;2022-11-20T14:13:51;51.38;;;24.25;;
39540;SDS011;25219;52.244;21.006;2022-11-20T14:16:19;60.58;;;27.33;;
39540;SDS011;25219;52.244;21.006;2022-11-20T14:18:44;63.45;;;26.58;;
39540;SDS011;25219;52.244;21.006;2022-11-20T14:21:20;59.13;;;25.95;;
39540;SDS011;25219;52.244;21.006;2022-11-20T14:23:47;57.28;;;26.20;;
39540;SDS011;25219;52.244;21.006;2022-11-20T14:26:14;55.00;;;25.25;;
39540;SDS011;25219;52.244;21.006;2022-11-20T14:28:41;53.25;;;25.20;;
39540;SDS011;25219;52.244;21.006;2022-11-20T14:31:08;57.00;;;25.65;;
39540;SDS011;25219;52.244;21.006;2022-11-20T14:33:41;56.00;;;25.48;;
39540;SDS011;25219;52.244;21.006;2022-11-20T14:36:15;68.53;;;26.67;;
39540;SDS011;25219;52.244;21.006;2022-11-20T14:38:41;51.90;;;24.90;;
39540;SDS011;25219;52.244;21.006;2022-11-20T14:41:15;53.88;;;24.73;;
39540;SDS011;25219;52.244;21.006;2022-11-20T14:43:44;50.85;;;24.52;;
39540;SDS011;25219;52.244;21.006;2022-11-20T14:46:10;50.50;;;24.60;;
39540;SDS011;25219;52.244;21.006;2022-11-20T14:48:39;54.45;;;24.85;;
39540;SDS011;25219;52.244;21.006;2022-11-20T14:51:05;54.65;;;25.83;;
39540;SDS011;25219;52.244;21.006;2022-11-20T14:53:33;49.60;;;24.38;;
39540;SDS011;25219;52.244;21.006;2022-11-20T14:56:01;50.58;;;24.35;;
39540;SDS011;25219;52.244;21.006;2022-11-20T14:58:31;52.17;;;24.90;;
39540;SDS011;25219;52.244;21.006;2022-11-20T15:00:59;52.85;;;24.55;;
39540;SDS011;25219;52.244;21.006;2022-11-20T15:03:35;52.33;;;24.73;;
39540;SDS011;25219;52.244;21.006;2022-11-20T15:06:01;50.58;;;23.13;;
39540;SDS011;25219;52.244;21.006;2022-11-20T15:08:27;53.42;;;24.35;;
39540;SDS011;25219;52.244;21.006;2022-11-20T15:10:53;50.53;;;22.88;;
39540;SDS011;25219;52.244;21.006;2022-11-20T15:13:37;59.35;;;24.30;;
39540;SDS011;25219;52.244;21.006;2022-11-20T15:16:04;48.70;;;23.25;;
39540;SDS011;25219;52.244;21.006;2022-11-20T15:18:33;54.97;;;24.80;;
39540;SDS011;25219;52.244;21.006;2022-11-20T15:21:02;54.17;;;23.60;;
39540;SDS011;25219;52.244;21.006;2022-11-20T15:23:28;55.33;;;25.83;;
39540;SDS011;25219;52.244;21.006;2022-11-20T15:25:53;55.88;;;24.77;;
39540;SDS011;25219;52.244;21.006;2022-11-20T15:28:31;53.15;;;23.65;;
39540;SDS011;25219;52.244;21.006;2022-11-20T15:30:57;53.42;;;25.45;;
39540;SDS011;25219;52.244;21.006;2022-11-20T15:33:22;55.45;;;25.27;;
39540;SDS011;25219;52.244;21.006;2022-11-20T15:35:48;55.22;;;24.52;;